createdAt,value
2023-02-17T00:01:36.833Z,100478.41
2023-02-17T00:04:05.626Z,100482.63
2023-02-17T00:06:35.071Z,100471.06
2023-02-17T00:09:04.283Z,100486.31
2023-02-17T00:11:36.416Z,100446.53
2023-02-17T00:14:04.718Z,100467.00
2023-02-17T00:16:33.933Z,100464.88
2023-02-17T00:19:25.315Z,100462.91
2023-02-17T00:21:57.475Z,100461.50
2023-02-17T00:24:29.495Z,100472.19
2023-02-17T00:26:58.430Z,100457.28
2023-02-17T00:29:27.200Z,100413.56
2023-02-17T00:31:56.078Z,100449.09
2023-02-17T00:34:24.352Z,100449.09
2023-02-17T00:36:52.451Z,100433.03
2023-02-17T00:39:23.530Z,100420.22
2023-02-17T00:41:52.537Z,100405.72
2023-02-17T00:44:24.202Z,100373.31
2023-02-17T00:46:55.252Z,100424.00
2023-02-17T00:49:25.477Z,100422.34
2023-02-17T00:51:55.172Z,100390.50
2023-02-17T00:54:24.777Z,100411.63
2023-02-17T00:56:52.916Z,100410.75
2023-02-17T00:59:21.225Z,100352.03
2023-02-17T01:01:49.749Z,100378.94
2023-02-17T01:04:19.130Z,100402.88
2023-02-17T01:06:47.429Z,100395.56
2023-02-17T01:09:16.653Z,100346.00
2023-02-17T01:11:47.144Z,100376.09
2023-02-17T01:14:16.777Z,100383.16
2023-02-17T01:16:48.706Z,100384.84
2023-02-17T01:19:20.894Z,100343.16
2023-02-17T01:21:49.249Z,100377.81
2023-02-17T01:24:17.948Z,100345.13
2023-02-17T01:26:47.786Z,100367.09
2023-02-17T01:29:16.196Z,100372.47
2023-02-17T01:31:44.445Z,100368.78
2023-02-17T01:34:12.627Z,100353.72
2023-02-17T01:36:40.954Z,100346.66
2023-02-17T01:39:09.227Z,100343.97
2023-02-17T01:41:37.432Z,100333.25
2023-02-17T01:44:10.147Z,100329.63
2023-02-17T01:46:40.022Z,100333.13
2023-02-17T01:49:18.330Z,100332.31
2023-02-17T01:51:49.973Z,100325.22
2023-02-17T01:54:23.331Z,100322.56
2023-02-17T01:56:53.036Z,100288.63
2023-02-17T01:59:24.094Z,100297.50
2023-02-17T02:01:57.398Z,100272.16
2023-02-17T02:04:30.491Z,100296.78
2023-02-17T02:06:59.016Z,100294.97
2023-02-17T02:09:33.298Z,100282.00
2023-02-17T02:12:01.880Z,100286.06
2023-02-17T02:14:32.537Z,100283.41
2023-02-17T02:17:14.170Z,100278.03
2023-02-17T02:20:09.404Z,100262.84
2023-02-17T02:23:13.843Z,100261.97
2023-02-17T02:26:06.889Z,100222.88
2023-02-17T02:28:54.691Z,100251.28
2023-02-17T02:31:38.093Z,100244.25
2023-02-17T02:34:14.092Z,100244.25
2023-02-17T02:36:48.639Z,100237.19
2023-02-17T02:39:20.214Z,100225.78
2023-02-17T02:41:55.228Z,100227.31
2023-02-17T02:44:24.393Z,100223.78
2023-02-17T02:47:00.848Z,100210.41
2023-02-17T02:49:33.157Z,100212.13
2023-02-17T02:52:08.317Z,100210.41
2023-02-17T02:54:48.444Z,100162.06
2023-02-17T02:57:34.952Z,100201.41
2023-02-17T03:00:15.702Z,100177.47
2023-02-17T03:02:54.836Z,100186.31
2023-02-17T03:05:34.475Z,100190.69
2023-02-17T03:08:10.009Z,100183.63
2023-02-17T03:10:45.420Z,100178.88
2023-02-17T03:13:13.670Z,100124.03
2023-02-17T03:15:44.624Z,100165.03
2023-02-17T03:18:18.759Z,100134.56
2023-02-17T03:20:54.337Z,100152.50
2023-02-17T03:23:22.892Z,100139.03
2023-02-17T03:25:51.735Z,100141.81
2023-02-17T03:28:20.018Z,100121.97
2023-02-17T03:30:48.425Z,100130.09
2023-02-17T03:33:16.583Z,100119.41
2023-02-17T03:35:46.092Z,100116.72
2023-02-17T03:38:19.176Z,100110.38
2023-02-17T03:40:49.735Z,100107.72
2023-02-17T03:43:18.797Z,100099.69
2023-02-17T03:45:48.008Z,100092.63
2023-02-17T03:48:17.160Z,100083.91
2023-02-17T03:50:45.861Z,100071.22
2023-02-17T03:53:18.488Z,100072.91
2023-02-17T03:55:47.525Z,100053.47
2023-02-17T03:58:17.457Z,100049.78
2023-02-17T04:00:46.477Z,99995.00
2023-02-17T04:03:16.150Z,100030.09
2023-02-17T04:05:46.723Z,99982.31
2023-02-17T04:08:16.380Z,100016.69
2023-02-17T04:10:45.514Z,100014.03
2023-02-17T04:13:14.361Z,100014.03
2023-02-17T04:15:42.522Z,100010.34
2023-02-17T04:18:11.318Z,99978.06
2023-02-17T04:20:39.865Z,100000.63
2023-02-17T04:23:09.146Z,99993.56
2023-02-17T04:25:40.591Z,99991.19
2023-02-17T04:28:10.422Z,99980.19
2023-02-17T04:30:39.257Z,99969.50
2023-02-17T04:33:07.797Z,99960.78
2023-02-17T04:35:35.944Z,99954.59
2023-02-17T04:38:04.419Z,99950.75
2023-02-17T04:40:32.753Z,99940.03
2023-02-17T04:43:05.825Z,99937.38
2023-02-17T04:45:34.920Z,99900.03
2023-02-17T04:48:04.346Z,99922.16
2023-02-17T04:50:32.557Z,99921.31
2023-02-17T04:53:00.693Z,99910.59
2023-02-17T04:55:30.053Z,99907.91
2023-02-17T04:57:58.469Z,99891.88
2023-02-17T05:00:29.271Z,99890.88
2023-02-17T05:02:58.189Z,99869.47
2023-02-17T05:05:26.981Z,99867.78
2023-02-17T05:07:55.616Z,99841.97
2023-02-17T05:10:24.189Z,99838.31
2023-02-17T05:12:52.492Z,99795.31
2023-02-17T05:15:23.955Z,99840.03
2023-02-17T05:17:54.821Z,99826.66
2023-02-17T05:20:24.372Z,99801.44
2023-02-17T05:22:53.658Z,99802.47
2023-02-17T05:25:21.992Z,99803.53
2023-02-17T05:27:50.565Z,99799.03
2023-02-17T05:30:19.799Z,99792.63
2023-02-17T05:32:48.607Z,99792.00
2023-02-17T05:35:18.614Z,99708.00
2023-02-17T05:37:47.041Z,99753.69
2023-02-17T05:40:15.554Z,99752.00
2023-02-17T05:42:46.742Z,99741.31
2023-02-17T05:45:16.025Z,99744.66
2023-02-17T05:47:46.416Z,99727.75
2023-02-17T05:50:14.808Z,99708.03
2023-02-17T05:52:44.434Z,99701.81
2023-02-17T05:55:12.573Z,99686.94
2023-02-17T05:57:41.600Z,99691.13
2023-02-17T06:00:11.074Z,99671.72
2023-02-17T06:02:39.522Z,99670.56
2023-02-17T06:05:13.321Z,99654.28
2023-02-17T06:07:41.798Z,99633.47
2023-02-17T06:10:12.660Z,99666.03
2023-02-17T06:12:40.908Z,99660.69
2023-02-17T06:15:09.671Z,99648.28
2023-02-17T06:17:38.419Z,99637.41
2023-02-17T06:20:07.690Z,99636.94
2023-02-17T06:22:36.079Z,99638.44
2023-02-17T06:25:04.575Z,99630.56
2023-02-17T06:27:34.303Z,99599.09
2023-02-17T06:30:03.073Z,99600.09
2023-02-17T06:32:31.810Z,99539.75
2023-02-17T06:35:00.156Z,99527.81
2023-02-17T06:37:29.001Z,99585.75
2023-02-17T06:39:57.826Z,99569.31
2023-02-17T06:42:27.047Z,99593.94
2023-02-17T06:44:56.639Z,99558.22
2023-02-17T06:47:25.542Z,99577.34
2023-02-17T06:49:54.297Z,99573.66
2023-02-17T06:52:22.559Z,99567.19
2023-02-17T06:54:50.763Z,99524.28
2023-02-17T06:57:19.339Z,99539.56
2023-02-17T06:59:47.580Z,99529.69
2023-02-17T07:02:17.330Z,99533.19
2023-02-17T07:04:45.560Z,99528.84
2023-02-17T07:07:14.088Z,99523.50
2023-02-17T07:09:42.689Z,99509.09
2023-02-17T07:12:10.877Z,99517.13
2023-02-17T07:14:39.576Z,99479.28
2023-02-17T07:17:07.653Z,99510.81
2023-02-17T07:19:37.864Z,99508.28
2023-02-17T07:22:06.701Z,99502.09
2023-02-17T07:24:36.247Z,99504.78
2023-02-17T07:27:06.401Z,99496.75
2023-02-17T07:29:35.576Z,99483.34
2023-02-17T07:32:04.022Z,99471.97
2023-02-17T07:34:32.271Z,99454.56
2023-02-17T07:37:02.035Z,99406.53
2023-02-17T07:39:31.137Z,99450.22
2023-02-17T07:42:01.229Z,99439.53
2023-02-17T07:44:29.637Z,99435.03
2023-02-17T07:46:57.856Z,99428.50
2023-02-17T07:49:26.702Z,99429.00
2023-02-17T07:51:56.327Z,99415.47
2023-02-17T07:54:28.698Z,99408.13
2023-02-17T07:56:57.306Z,99409.78
2023-02-17T07:59:30.475Z,99407.78
2023-02-17T08:01:59.324Z,99385.34
2023-02-17T08:04:27.558Z,99386.03
2023-02-17T08:06:55.678Z,99361.78
2023-02-17T08:09:42.509Z,99352.72
2023-02-17T08:12:33.366Z,99348.56
2023-02-17T08:15:02.619Z,99335.16
2023-02-17T08:17:30.957Z,99318.75
2023-02-17T08:20:01.960Z,99240.66
2023-02-17T08:22:32.366Z,99246.19
2023-02-17T08:25:02.094Z,99252.19
2023-02-17T08:27:30.410Z,99272.91
2023-02-17T08:29:58.715Z,99240.19
2023-02-17T08:32:27.696Z,99269.59
2023-02-17T08:34:57.288Z,99248.19
2023-02-17T08:37:25.990Z,99237.66
2023-02-17T08:39:54.371Z,99212.41
2023-02-17T08:42:24.546Z,99223.41
2023-02-17T08:44:53.414Z,99215.38
2023-02-17T08:47:22.344Z,99201.03
2023-02-17T08:49:50.540Z,99214.72
2023-02-17T08:52:20.813Z,99208.84
2023-02-17T08:54:51.645Z,99201.66
2023-02-17T08:57:21.747Z,99196.31
2023-02-17T08:59:51.443Z,99185.63
2023-02-17T09:02:19.733Z,99178.59
2023-02-17T09:04:48.979Z,99165.22
2023-02-17T09:07:17.829Z,99163.34
2023-02-17T09:09:46.023Z,99150.81
2023-02-17T09:12:15.600Z,99144.78
2023-02-17T09:14:43.917Z,99140.28
2023-02-17T09:17:13.464Z,99043.28
2023-02-17T09:19:41.602Z,99119.72
2023-02-17T09:22:13.588Z,99112.69
2023-02-17T09:24:46.464Z,99060.09
2023-02-17T09:27:14.991Z,99090.56
2023-02-17T09:29:43.310Z,99081.56
2023-02-17T09:32:12.025Z,99070.50
2023-02-17T09:34:42.000Z,99026.78
2023-02-17T09:37:12.757Z,99057.75
2023-02-17T09:39:41.002Z,99041.69
2023-02-17T09:42:18.090Z,99033.84
2023-02-17T09:44:50.059Z,99026.31
2023-02-17T09:47:21.961Z,99022.78
2023-02-17T09:49:56.457Z,99015.78
2023-02-17T09:52:31.696Z,99007.94
2023-02-17T09:55:05.471Z,98997.22
2023-02-17T09:57:38.581Z,98991.19
2023-02-17T10:00:12.302Z,98964.03
2023-02-17T10:02:48.466Z,98978.16
2023-02-17T10:05:23.425Z,98979.00
2023-02-17T10:07:58.584Z,98971.16
2023-02-17T10:10:32.795Z,98965.81
2023-02-17T10:13:03.517Z,98961.47
2023-02-17T10:15:36.879Z,98946.41
2023-02-17T10:18:13.666Z,98930.34
2023-02-17T10:20:51.124Z,98918.81
2023-02-17T10:23:22.646Z,98912.63
2023-02-17T10:26:08.719Z,98895.91
2023-02-17T10:28:49.729Z,98875.16
2023-02-17T10:31:25.547Z,98861.78
2023-02-17T10:34:03.020Z,98860.75
2023-02-17T10:36:44.948Z,98845.72
2023-02-17T10:39:17.360Z,98826.16
2023-02-17T10:41:49.483Z,98812.94
2023-02-17T10:44:21.577Z,98802.91
2023-02-17T10:46:51.994Z,98794.88
2023-02-17T10:49:27.339Z,98798.56
2023-02-17T10:52:02.210Z,98799.75
2023-02-17T10:54:36.140Z,98786.19
2023-02-17T10:57:09.566Z,98739.84
2023-02-17T10:59:42.120Z,98741.72
2023-02-17T11:02:19.622Z,98726.69
2023-02-17T11:04:50.585Z,98723.66
2023-02-17T11:07:25.561Z,98695.47
2023-02-17T11:09:59.907Z,98698.53
2023-02-17T11:12:31.026Z,98689.84
2023-02-17T11:14:59.242Z,98626.47
2023-02-17T11:17:32.760Z,98658.59
2023-02-17T11:20:04.627Z,98647.03
2023-02-17T11:22:38.529Z,98625.63
2023-02-17T11:25:09.315Z,98620.28
2023-02-17T11:27:37.379Z,98617.59
2023-02-17T11:30:15.919Z,98604.22
2023-02-17T11:32:44.057Z,98503.47
2023-02-17T11:35:24.859Z,98549.25
2023-02-17T11:38:01.679Z,98565.94
2023-02-17T11:40:32.920Z,98554.13
2023-02-17T11:43:02.620Z,98549.06
2023-02-17T11:45:39.218Z,98533.00
2023-02-17T11:48:49.492Z,98510.69
2023-02-17T11:51:24.698Z,98525.63
2023-02-17T11:54:05.278Z,98504.22
2023-02-17T11:56:37.133Z,98504.59
2023-02-17T11:59:32.909Z,98496.38
2023-02-17T12:02:17.398Z,98490.19
2023-02-17T12:05:02.316Z,98477.69
2023-02-17T12:07:48.480Z,98385.81
2023-02-17T12:10:30.793Z,98451.34
2023-02-17T12:13:09.207Z,98443.53
2023-02-17T12:15:58.992Z,98433.28
2023-02-17T12:18:43.188Z,98433.28
2023-02-17T12:21:20.028Z,98426.28
2023-02-17T12:24:08.135Z,98422.56
2023-02-17T12:26:43.306Z,98402.28
2023-02-17T12:29:24.935Z,98397.81
2023-02-17T12:32:05.076Z,98390.81
2023-02-17T12:34:41.117Z,98381.75
2023-02-17T12:37:20.798Z,98359.84
2023-02-17T12:39:56.084Z,98378.84
2023-02-17T12:42:31.468Z,98380.13
2023-02-17T12:45:06.253Z,98362.34
2023-02-17T12:47:45.407Z,98369.41
2023-02-17T12:50:22.269Z,98360.34
2023-02-17T12:52:55.134Z,98345.97
2023-02-17T12:55:30.514Z,98343.28
2023-02-17T12:58:05.649Z,98307.53
2023-02-17T13:00:42.472Z,98322.69
2023-02-17T13:03:13.895Z,98319.13
2023-02-17T13:05:48.139Z,98329.91
2023-02-17T13:08:19.990Z,98323.53
2023-02-17T13:10:48.110Z,98314.22
2023-02-17T13:13:31.336Z,98316.53
2023-02-17T13:16:05.155Z,98309.69
2023-02-17T13:18:35.141Z,98304.78
2023-02-17T13:21:18.108Z,98253.69
2023-02-17T13:23:58.593Z,98276.75
2023-02-17T13:26:30.263Z,98265.28
2023-02-17T13:29:23.266Z,98264.88
2023-02-17T13:31:54.921Z,98255.81
2023-02-17T13:34:29.492Z,98255.19
2023-02-17T13:36:58.317Z,98240.78
2023-02-17T13:39:38.571Z,98244.72
2023-02-17T13:42:22.736Z,98233.16
2023-02-17T13:44:52.499Z,98228.66
2023-02-17T13:47:30.097Z,98217.97
2023-02-17T13:50:00.015Z,98214.25
2023-02-17T13:52:39.846Z,98199.81
2023-02-17T13:55:08.456Z,98199.81
2023-02-17T13:57:38.459Z,98200.66
2023-02-17T14:00:22.523Z,98194.47
2023-02-17T14:02:53.237Z,98186.44
2023-02-17T14:05:27.033Z,98137.13
2023-02-17T14:08:00.594Z,98171.03
2023-02-17T14:10:29.591Z,98147.97
2023-02-17T14:12:58.569Z,98112.41
2023-02-17T14:15:30.225Z,98130.22
2023-02-17T14:17:59.117Z,98115.41
2023-02-17T14:20:33.260Z,98067.88
2023-02-17T14:23:09.140Z,98095.94
2023-02-17T14:25:39.602Z,98087.78
2023-02-17T14:28:20.055Z,98089.00
2023-02-17T14:30:51.273Z,98060.06
2023-02-17T14:33:24.002Z,98067.59
2023-02-17T14:35:54.958Z,98037.13
2023-02-17T14:38:27.751Z,97998.72
2023-02-17T14:40:56.984Z,98019.03
2023-02-17T14:43:25.780Z,97983.56
2023-02-17T14:45:55.616Z,98002.97
2023-02-17T14:48:27.597Z,98000.88
2023-02-17T14:50:58.133Z,97973.69
2023-02-17T14:53:28.018Z,97965.09
2023-02-17T14:56:01.208Z,97950.66
2023-02-17T14:58:30.860Z,97945.31
2023-02-17T15:01:01.452Z,97935.44
2023-02-17T15:03:32.347Z,97930.88
2023-02-17T15:06:03.101Z,97907.84
2023-02-17T15:08:39.619Z,97902.47
2023-02-17T15:11:14.258Z,97884.78
2023-02-17T15:13:42.563Z,97865.84
2023-02-17T15:16:16.116Z,97865.00
2023-02-17T15:18:52.707Z,97859.66
2023-02-17T15:21:27.286Z,97844.44
2023-02-17T15:23:58.976Z,97839.88
2023-02-17T15:26:38.812Z,97807.75
2023-02-17T15:29:18.451Z,97795.22
2023-02-17T15:31:53.607Z,97778.94
2023-02-17T15:34:24.772Z,97769.03
2023-02-17T15:36:53.585Z,97743.13
2023-02-17T15:39:22.774Z,97738.16
2023-02-17T15:41:53.842Z,97723.75
2023-02-17T15:44:26.938Z,97689.22
2023-02-17T15:46:57.917Z,97675.63
2023-02-17T15:49:30.536Z,97713.44
2023-02-17T15:52:00.037Z,97681.78
2023-02-17T15:54:28.206Z,97622.09
2023-02-17T15:56:56.627Z,97650.88
2023-02-17T15:59:27.006Z,97669.78
2023-02-17T16:01:59.695Z,97667.97
2023-02-17T16:04:28.680Z,97652.94
2023-02-17T16:06:58.622Z,97663.22
2023-02-17T16:09:26.710Z,97644.50
2023-02-17T16:11:57.473Z,97610.16
2023-02-17T16:14:33.291Z,97624.50
2023-02-17T16:17:04.104Z,97602.28
2023-02-17T16:19:33.532Z,97600.66
2023-02-17T16:22:02.049Z,97602.28
2023-02-17T16:24:31.018Z,97581.28
2023-02-17T16:26:59.875Z,97584.59
2023-02-17T16:29:28.714Z,97508.13
2023-02-17T16:31:57.666Z,97575.53
2023-02-17T16:34:32.689Z,97581.91
2023-02-17T16:37:05.440Z,97573.06
2023-02-17T16:39:34.086Z,97565.72
2023-02-17T16:42:03.747Z,97606.44
2023-02-17T16:44:33.223Z,97579.88
2023-02-17T16:47:04.397Z,97596.13
2023-02-17T16:49:37.844Z,97601.50
2023-02-17T16:52:09.695Z,97590.16
2023-02-17T16:54:38.238Z,97596.56
2023-02-17T16:57:08.202Z,97572.75
2023-02-17T16:59:37.354Z,97606.63
2023-02-17T17:02:06.265Z,97614.66
2023-02-17T17:04:36.069Z,97622.06
2023-02-17T17:07:04.803Z,97622.06
2023-02-17T17:09:32.990Z,97632.78
2023-02-17T17:12:01.334Z,97626.84
2023-02-17T17:14:29.397Z,97624.97
2023-02-17T17:17:02.065Z,97632.19
2023-02-17T17:19:30.967Z,97627.84
2023-02-17T17:22:01.585Z,97638.53
2023-02-17T17:24:31.682Z,97609.56
2023-02-17T17:27:00.268Z,97635.28
2023-02-17T17:29:28.469Z,97645.56
2023-02-17T17:31:58.031Z,97669.03
2023-02-17T17:34:28.114Z,97645.97
2023-02-17T17:36:56.509Z,97652.16
2023-02-17T17:39:26.142Z,97672.75
2023-02-17T17:41:55.081Z,97672.75
2023-02-17T17:44:28.155Z,97630.78
2023-02-17T17:46:56.420Z,97683.44
2023-02-17T17:49:25.682Z,97695.16
2023-02-17T17:51:54.444Z,97681.78
2023-02-17T17:54:22.675Z,97703.59
2023-02-17T17:56:54.098Z,97685.69
2023-02-17T17:59:23.582Z,97691.69
2023-02-17T18:01:51.931Z,97714.31
2023-02-17T18:04:28.692Z,97663.72
2023-02-17T18:06:59.652Z,97707.31
2023-02-17T18:09:32.376Z,97733.22
2023-02-17T18:12:06.917Z,97749.28
2023-02-17T18:14:39.314Z,97741.06
2023-02-17T18:17:09.395Z,97754.22
2023-02-17T18:19:37.821Z,97749.72
2023-02-17T18:22:06.167Z,97750.13
2023-02-17T18:24:34.741Z,97783.47
2023-02-17T18:27:05.419Z,97779.78
2023-02-17T18:29:42.054Z,97775.44
2023-02-17T18:32:10.647Z,97778.09
2023-02-17T18:34:39.598Z,97804.88
2023-02-17T18:37:08.241Z,97800.34
2023-02-17T18:39:39.512Z,97781.81
2023-02-17T18:42:10.288Z,97808.59
2023-02-17T18:44:41.346Z,97802.00
2023-02-17T18:47:12.952Z,97802.41
2023-02-17T18:49:44.574Z,97802.38
2023-02-17T18:52:14.037Z,97815.97
2023-02-17T18:54:43.511Z,97824.16
2023-02-17T18:57:20.208Z,97816.78
2023-02-17T18:59:52.554Z,97863.75
2023-02-17T19:02:27.722Z,97882.28
2023-02-17T19:04:57.322Z,97862.47
2023-02-17T19:07:25.711Z,97882.28
2023-02-17T19:09:54.743Z,97911.72
2023-02-17T19:12:24.573Z,97918.06
2023-02-17T19:14:56.061Z,97922.56
2023-02-17T19:17:29.760Z,97889.59
2023-02-17T19:19:58.254Z,97955.53
2023-02-17T19:22:26.708Z,97951.84
2023-02-17T19:24:55.840Z,97984.75
2023-02-17T19:27:25.357Z,98000.00
2023-02-17T19:29:54.219Z,97999.13
2023-02-17T19:32:22.329Z,98007.78
2023-02-17T19:34:53.382Z,98028.81
2023-02-17T19:37:24.521Z,98062.56
2023-02-17T19:39:54.141Z,98045.25
2023-02-17T19:42:22.380Z,98056.78
2023-02-17T19:44:53.583Z,98076.97
2023-02-17T19:47:23.029Z,98051.09
2023-02-17T19:49:51.534Z,98049.59
2023-02-17T19:52:20.489Z,98124.28
2023-02-17T19:54:50.580Z,98130.88
2023-02-17T19:57:18.841Z,98118.41
2023-02-17T19:59:47.694Z,98110.97
2023-02-17T20:02:17.678Z,98171.66
2023-02-17T20:04:46.015Z,98156.38
2023-02-17T20:07:16.379Z,98193.06
2023-02-17T20:09:44.879Z,98211.78
2023-02-17T20:12:14.079Z,98211.78
2023-02-17T20:14:42.850Z,98181.38
2023-02-17T20:17:11.097Z,98228.03
2023-02-17T20:19:41.283Z,98228.03
2023-02-17T20:22:12.188Z,98238.69
2023-02-17T20:24:43.769Z,98235.31
2023-02-17T20:27:12.255Z,98255.59
2023-02-17T20:29:40.545Z,98271.66
2023-02-17T20:32:08.797Z,98300.09
2023-02-17T20:34:40.806Z,98296.78
2023-02-17T20:37:11.663Z,98315.31
2023-02-17T20:39:41.158Z,98282.31
2023-02-17T20:42:09.876Z,98312.72
2023-02-17T20:44:39.316Z,98333.22
2023-02-17T20:47:07.781Z,98346.59
2023-02-17T20:49:36.348Z,98358.97
2023-02-17T20:52:05.923Z,98362.66
2023-02-17T20:54:36.018Z,98384.88
2023-02-17T20:57:05.014Z,98377.44
2023-02-17T20:59:33.119Z,98388.13
2023-02-17T21:02:01.209Z,98421.50
2023-02-17T21:04:30.628Z,98417.84
2023-02-17T21:07:01.563Z,98437.56
2023-02-17T21:09:30.608Z,98459.81
2023-02-17T21:12:00.363Z,98447.75
2023-02-17T21:14:28.481Z,98468.78
2023-02-17T21:16:56.974Z,98430.28
2023-02-17T21:19:26.317Z,98478.75
2023-02-17T21:21:54.740Z,98492.78
2023-02-17T21:24:24.506Z,98505.50
2023-02-17T21:26:53.396Z,98507.00
2023-02-17T21:29:23.428Z,98533.09
2023-02-17T21:31:53.671Z,98538.44
2023-02-17T21:34:22.065Z,98540.28
2023-02-17T21:36:50.696Z,98553.66
2023-02-17T21:39:19.630Z,98564.09
2023-02-17T21:41:48.924Z,98571.56
2023-02-17T21:44:34.401Z,98543.00
2023-02-17T21:47:04.276Z,98551.03
2023-02-17T21:49:32.351Z,98612.53
2023-02-17T21:52:00.694Z,98618.72
2023-02-17T21:54:28.883Z,98612.91
2023-02-17T21:56:57.965Z,98626.72
2023-02-17T21:59:26.006Z,98641.69
2023-02-17T22:01:54.716Z,98673.25
2023-02-17T22:04:26.611Z,98683.16
2023-02-17T22:06:55.175Z,98685.81
2023-02-17T22:09:23.147Z,98689.50
2023-02-17T22:11:51.361Z,98695.56
2023-02-17T22:14:21.326Z,98716.25
2023-02-17T22:16:50.570Z,98723.28
2023-02-17T22:19:20.304Z,98698.69
2023-02-17T22:21:50.883Z,98737.66
2023-02-17T22:24:21.568Z,98741.72
2023-02-17T22:26:50.711Z,98727.47
2023-02-17T22:29:18.939Z,98779.47
2023-02-17T22:31:50.410Z,98762.41
2023-02-17T22:34:19.023Z,98790.19
2023-02-17T22:36:47.113Z,98781.19
2023-02-17T22:39:17.467Z,98819.63
2023-02-17T22:41:46.034Z,98811.34
2023-02-17T22:44:14.206Z,98841.84
2023-02-17T22:46:42.555Z,98848.03
2023-02-17T22:49:11.218Z,98820.34
2023-02-17T22:51:41.260Z,98836.16
2023-02-17T22:54:10.049Z,98880.16
2023-02-17T22:56:42.561Z,98896.22
2023-02-17T22:59:10.771Z,98900.72
2023-02-17T23:01:39.355Z,98925.66
2023-02-17T23:04:09.600Z,98866.69
2023-02-17T23:06:39.213Z,98931.56
2023-02-17T23:09:09.356Z,98943.72
2023-02-17T23:11:54.759Z,98968.66
2023-02-17T23:14:26.386Z,98945.31
2023-02-17T23:16:56.541Z,98951.75
2023-02-17T23:19:25.907Z,98971.50
2023-02-17T23:21:56.348Z,98992.91
2023-02-17T23:24:26.474Z,98929.94
2023-02-17T23:26:58.037Z,98998.28
2023-02-17T23:29:26.451Z,98988.34
2023-02-17T23:31:55.081Z,99015.97
2023-02-17T23:34:24.010Z,99023.19
2023-02-17T23:36:52.438Z,99038.41
2023-02-17T23:39:23.216Z,99051.78
2023-02-17T23:41:52.142Z,99039.44
2023-02-17T23:44:22.010Z,99067.84
2023-02-17T23:46:50.776Z,99055.50
2023-02-17T23:49:19.492Z,99079.56
2023-02-17T23:51:48.303Z,99085.91
2023-02-17T23:54:17.018Z,99080.44
2023-02-17T23:56:45.708Z,99099.13
2023-02-17T23:59:14.270Z,99112.69
